This is the latest recevied weather packets stored in our database for station/object KG7BDA. If no packets are shown the sender has not sent any weather packets the latest 10 day(s).
| Time | Temp. | Humidity | Pressure | Rain* | Wind** | Luminosity | Snow |
|---|---|---|---|---|---|---|---|
| 1777960278 | 16.67° C | 42% | 1005.2 hPa | 0 mm | - | - | - |
| 1777959919 | 17.22° C | 42% | 1005.2 hPa | 0 mm | - | - | - |
| 1777959199 | 17.78° C | 40% | 1005.2 hPa | 0 mm | - | - | - |
| 1777958479 | 17.22° C | 41% | 1005.3 hPa | 0 mm | - | - | - |
| 1777958118 | 17.78° C | 39% | 1005.2 hPa | 0 mm | - | - | - |
| 1777957760 | 17.22° C | 41% | 1005 hPa | 0 mm | - | - | - |
| 1777957399 | 17.78° C | 39% | 1005.1 hPa | 0 mm | - | - | - |
| 1777957039 | 18.89° C | 36% | 1005 hPa | 0 mm | - | - | - |
| 1777956679 | 18.89° C | 35% | 1004.9 hPa | 0 mm | - | - | - |
| 1777956319 | 18.89° C | 35% | 1005.1 hPa | 0 mm | - | - | - |
| 1777955960 | 18.89° C | 35% | 1005.1 hPa | 0 mm | - | - | - |
| 1777955599 | 19.44° C | 35% | 1005.1 hPa | 0 mm | - | - | - |
| 1777955239 | 19.44° C | 34% | 1005.1 hPa | 0 mm | - | - | - |
| 1777955150 | 20° C | 34% | 1004.9 hPa | 0 mm | - | - | - |
| 1777954879 | 20° C | 34% | 1004.9 hPa | 0 mm | - | - | - |
| 1777954519 | 20° C | 34% | 1005 hPa | 0 mm | - | - | - |
| 1777954159 | 20° C | 33% | 1005.1 hPa | 0 mm | - | - | - |
| 1777953799 | 20° C | 33% | 1005 hPa | 0 mm | - | - | - |
| 1777953438 | 20.56° C | 33% | 1005 hPa | 0 mm | - | - | - |
| 1777953080 | 20.56° C | 33% | 1004.9 hPa | 0 mm | - | - | - |
| 1777952720 | 20.56° C | 33% | 1004.9 hPa | 0 mm | - | - | - |
| 1777952358 | 21.11° C | 32% | 1004.8 hPa | 0 mm | - | - | - |
| 1777951999 | 20.56° C | 33% | 1004.8 hPa | 0 mm | - | - | - |
| 1777951639 | 20.56° C | 33% | 1004.9 hPa | 0 mm | - | - | - |
| 1777951278 | 20.56° C | 34% | 1004.7 hPa | 0 mm | - | - | - |
* Rain latest hour (hover to see other rain measurements)
** Current wind speed in m/s (hover to see current wind gust speed)